Time;durP1;ratioP1;P1;durP2;ratioP2;P2;SDS_P1;SDS_P2;PMS_P1;PMS_P2;Temp;Humidity;BMP_temperature;BMP_pressure;BME280_temperature;BME280_humidity;BME280_pressure;Samples;Min_cycle;Max_cycle;Signal;HPM_P1;HPM_P2
2023/09/08 00:01:49;;;;;;;9.20;6.38;;;23.50;61.50;;;;;;4991614;28;20511;-39
2023/09/08 00:04:14;;;;;;;9.23;6.38;;;23.50;61.50;;;;;;4993296;28;20081;-39
2023/09/08 00:06:40;;;;;;;9.85;6.35;;;23.40;62.60;;;;;;4991643;28;20454;-38
2023/09/08 00:09:07;;;;;;;9.90;6.28;;;23.50;60.30;;;;;;4993341;28;20053;-39
2023/09/08 00:11:32;;;;;;;8.25;6.22;;;23.50;62.20;;;;;;4993446;28;20042;-39
2023/09/08 00:13:58;;;;;;;9.10;6.65;;;23.40;58.50;;;;;;4991486;28;20626;-39
2023/09/08 00:16:24;;;;;;;10.07;6.40;;;24.50;60.30;;;;;;4992703;28;20515;-39
2023/09/08 00:18:50;;;;;;;9.48;6.53;;;23.30;60.30;;;;;;4992783;28;20038;-39
2023/09/08 00:21:16;;;;;;;10.73;6.55;;;23.60;60.90;;;;;;4992476;28;20528;-39
2023/09/08 00:23:41;;;;;;;11.32;6.53;;;23.80;58.90;;;;;;4992883;28;20073;-39
2023/09/08 00:26:07;;;;;;;9.50;6.88;;;23.30;58.80;;;;;;4991195;28;20349;-38
2023/09/08 00:28:33;;;;;;;9.45;6.47;;;23.40;58.90;;;;;;4985089;28;20038;-39
2023/09/08 00:31:00;;;;;;;9.27;6.65;;;23.50;56.10;;;;;;4993309;28;20030;-39
2023/09/08 00:33:26;;;;;;;9.48;6.60;;;23.30;55.50;;;;;;4994250;28;20052;-39
2023/09/08 00:35:53;;;;;;;9.23;6.78;;;24.00;57.00;;;;;;4993271;28;20125;-38
2023/09/08 00:38:19;;;;;;;9.82;6.80;;;24.50;56.10;;;;;;4992139;28;20535;-38
2023/09/08 00:40:45;;;;;;;8.48;6.68;;;24.20;57.50;;;;;;4992082;28;20528;-39
2023/09/08 00:43:10;;;;;;;9.40;5.63;;;23.50;56.80;;;;;;4991822;28;20043;-39
2023/09/08 00:45:42;;;;;;;8.65;6.10;;;24.10;53.40;;;;;;4991065;28;20444;-39
2023/09/08 00:48:09;;;;;;;8.73;6.65;;;23.20;63.10;;;;;;4985862;28;20097;-39
2023/09/08 00:50:36;;;;;;;10.60;7.13;;;23.80;58.30;;;;;;4991087;28;20140;-39
2023/09/08 00:53:06;;;;;;;10.88;7.18;;;23.70;57.90;;;;;;4991254;28;20060;-39
2023/09/08 00:55:32;;;;;;;9.70;7.57;;;23.20;32.10;;;;;;4990105;28;20046;-39
2023/09/08 00:57:59;;;;;;;9.55;6.72;;;23.50;52.90;;;;;;4991926;28;20038;-39
2023/09/08 01:00:26;;;;;;;9.77;7.00;;;23.10;55.50;;;;;;4992183;28;20042;-38
2023/09/08 01:02:52;;;;;;;10.02;7.25;;;24.10;53.00;;;;;;4991218;28;20042;-38
2023/09/08 01:05:17;;;;;;;10.82;6.70;;;23.30;52.00;;;;;;4990343;28;20077;-38
2023/09/08 01:07:44;;;;;;;11.45;7.43;;;23.40;53.00;;;;;;4991883;28;20038;-39
2023/09/08 01:10:11;;;;;;;9.50;6.95;;;24.00;49.00;;;;;;4984090;28;20042;-39
2023/09/08 01:12:37;;;;;;;11.05;7.07;;;23.40;53.00;;;;;;5021098;23;20481;-36
2023/09/08 01:15:04;;;;;;;9.48;7.28;;;22.90;49.90;;;;;;4978430;28;20054;-35
2023/09/08 01:17:30;;;;;;;9.80;6.80;;;23.60;48.60;;;;;;4990849;28;20404;-34
2023/09/08 01:20:00;;;;;;;9.52;6.63;;;23.30;59.30;;;;;;4987520;28;20041;-34
2023/09/08 01:22:54;;;;;;;10.35;7.72;;;23.30;53.20;;;;;;4992875;28;20046;-34
2023/09/08 01:25:21;;;;;;;10.75;7.00;;;23.10;32.20;;;;;;5002613;22;20081;-30
2023/09/08 01:27:50;;;;;;;9.13;6.38;;;22.50;45.80;;;;;;4984682;28;20070;-33
2023/09/08 01:30:16;;;;;;;9.98;6.38;;;23.90;51.80;;;;;;4991961;28;20415;-32
2023/09/08 01:32:45;;;;;;;8.70;6.65;;;23.50;50.40;;;;;;4990782;28;20129;-32
2023/09/08 01:35:11;;;;;;;9.27;6.07;;;23.30;51.50;;;;;;4990787;28;20231;-32
2023/09/08 01:37:40;;;;;;;11.18;6.90;;;23.40;48.20;;;;;;4990926;28;20138;-32
2023/09/08 01:40:06;;;;;;;12.20;7.57;;;23.30;50.40;;;;;;4989042;28;20053;-32
2023/09/08 01:42:32;;;;;;;10.35;6.70;;;23.00;42.00;;;;;;5006257;28;20034;-32
2023/09/08 01:44:58;;;;;;;10.15;6.93;;;23.70;47.30;;;;;;4986273;28;20057;-32
2023/09/08 01:47:24;;;;;;;10.23;6.88;;;24.00;46.50;;;;;;4990675;28;20046;-32
2023/09/08 01:49:50;;;;;;;10.73;6.80;;;23.00;48.10;;;;;;4977635;28;20043;-32
2023/09/08 01:52:15;;;;;;;8.15;5.95;;;23.30;46.60;;;;;;4988721;28;20049;-31
2023/09/08 01:54:41;;;;;;;10.00;7.57;;;23.30;46.80;;;;;;4990835;28;20416;-31
2023/09/08 01:57:06;;;;;;;10.18;7.13;;;23.20;46.80;;;;;;4987869;28;20077;-31
2023/09/08 01:59:32;;;;;;;8.73;6.65;;;23.40;47.60;;;;;;4982297;28;20416;-31
2023/09/08 02:01:58;;;;;;;10.25;7.22;;;23.00;44.80;;;;;;4990310;28;20038;-31
2023/09/08 02:04:23;;;;;;;10.25;7.15;;;22.90;45.00;;;;;;4982453;28;20036;-32
2023/09/08 02:06:49;;;;;;;9.88;6.72;;;23.00;44.50;;;;;;4992010;28;20045;-32
2023/09/08 02:09:15;;;;;;;10.32;7.13;;;23.30;54.30;;;;;;4990733;28;20404;-32
2023/09/08 02:11:41;;;;;;;10.75;7.18;;;23.20;43.30;;;;;;4989508;28;20042;-31
2023/09/08 02:14:07;;;;;;;12.75;6.93;;;21.00;43.30;;;;;;4988222;28;20046;-31
2023/09/08 02:16:33;;;;;;;8.80;7.10;;;22.90;44.30;;;;;;4978871;28;20046;-31
2023/09/08 02:18:58;;;;;;;9.15;7.68;;;22.90;43.40;;;;;;4988949;28;20045;-31
2023/09/08 02:21:24;;;;;;;8.98;7.00;;;23.40;44.80;;;;;;4990729;28;20077;-32
2023/09/08 02:23:50;;;;;;;11.35;7.03;;;22.90;43.10;;;;;;4990722;28;20030;-31
2023/09/08 02:26:15;;;;;;;8.98;7.05;;;23.10;46.60;;;;;;4981944;28;20039;-32
2023/09/08 02:28:41;;;;;;;11.15;8.25;;;23.10;42.50;;;;;;4990430;28;20041;-31
2023/09/08 02:31:07;;;;;;;9.63;7.85;;;23.20;41.10;;;;;;4990114;28;20044;-31
2023/09/08 02:33:32;;;;;;;8.90;6.75;;;23.10;38.10;;;;;;4990181;28;20039;-31
2023/09/08 02:36:05;;;;;;;9.57;7.20;;;23.00;41.10;;;;;;4985652;28;20048;-31
2023/09/08 02:38:32;;;;;;;9.60;6.47;;;23.20;23.70;;;;;;4989741;28;20068;-31
2023/09/08 02:40:58;;;;;;;9.27;7.38;;;23.00;43.60;;;;;;4990607;28;20420;-31
2023/09/08 02:43:24;;;;;;;9.25;7.10;;;23.40;40.40;;;;;;4991361;28;20038;-32
2023/09/08 02:45:49;;;;;;;9.45;7.03;;;22.80;41.30;;;;;;4991467;28;20038;-31
2023/09/08 02:48:16;;;;;;;9.73;7.90;;;22.70;41.30;;;;;;4991070;28;20031;-31
2023/09/08 02:50:43;;;;;;;11.90;7.65;;;23.10;42.30;;;;;;4982916;28;20047;-32
2023/09/08 02:53:09;;;;;;;10.25;7.60;;;22.90;44.20;;;;;;4989502;28;20046;-32
2023/09/08 02:55:35;;;;;;;11.00;7.95;;;23.10;42.00;;;;;;4989963;28;20034;-32
2023/09/08 02:58:00;;;;;;;10.57;7.28;;;22.90;39.60;;;;;;4989578;28;20730;-31
2023/09/08 03:00:27;;;;;;;9.63;7.30;;;23.50;36.50;;;;;;4990243;28;20407;-32
2023/09/08 03:02:52;;;;;;;9.65;7.47;;;22.80;38.80;;;;;;4990094;28;20129;-32
2023/09/08 03:05:18;;;;;;;9.38;7.00;;;23.00;39.10;;;;;;4986056;28;20518;-31
2023/09/08 03:07:47;;;;;;;10.40;7.40;;;22.90;38.40;;;;;;4983647;28;20149;-32
2023/09/08 03:10:12;;;;;;;9.85;7.45;;;22.90;38.50;;;;;;4989390;28;20034;-31
2023/09/08 03:12:38;;;;;;;11.75;6.93;;;22.80;35.50;;;;;;4991254;28;20132;-32
2023/09/08 03:15:05;;;;;;;9.20;7.20;;;23.30;35.90;;;;;;4985417;28;20064;-31
2023/09/08 03:17:30;;;;;;;9.93;6.80;;;23.00;28.10;;;;;;4989742;28;20580;-32
2023/09/08 03:19:56;;;;;;;10.70;7.38;;;22.80;32.90;;;;;;4991066;28;20142;-32
2023/09/08 03:22:21;;;;;;;9.18;7.68;;;23.00;31.50;;;;;;4986023;28;20045;-32
2023/09/08 03:24:47;;;;;;;9.20;6.75;;;22.90;31.30;;;;;;4989835;28;20389;-32
2023/09/08 03:27:13;;;;;;;9.75;7.57;;;22.60;29.10;;;;;;4980703;28;20101;-31
2023/09/08 03:29:38;;;;;;;12.65;7.70;;;22.50;28.00;;;;;;4989960;28;20475;-31
2023/09/08 03:32:05;;;;;;;10.50;7.60;;;22.80;30.00;;;;;;4989243;28;20117;-31
2023/09/08 03:34:31;;;;;;;8.48;6.85;;;23.00;23.90;;;;;;4989816;28;20118;-31
2023/09/08 03:36:56;;;;;;;10.95;7.32;;;22.70;29.00;;;;;;4989185;28;20121;-31
2023/09/08 03:39:22;;;;;;;11.18;7.65;;;23.00;29.00;;;;;;4989475;28;20030;-32
2023/09/08 03:41:47;;;;;;;8.90;7.03;;;23.00;26.80;;;;;;4989941;28;20045;-32
2023/09/08 03:44:13;;;;;;;10.13;7.65;;;22.70;27.60;;;;;;4990263;28;20046;-31
2023/09/08 03:46:39;;;;;;;10.48;7.13;;;22.70;25.80;;;;;;4989501;28;20473;-31
2023/09/08 03:49:04;;;;;;;12.45;8.07;;;22.80;24.00;;;;;;4990722;28;20070;-31
2023/09/08 03:51:30;;;;;;;10.18;7.13;;;22.50;24.20;;;;;;4984199;28;20046;-32
2023/09/08 03:53:56;;;;;;;10.18;7.68;;;22.60;24.80;;;;;;4988787;28;20046;-32
2023/09/08 03:56:22;;;;;;;9.75;7.22;;;22.50;23.90;;;;;;4988945;28;20505;-32
2023/09/08 03:58:48;;;;;;;9.82;7.60;;;22.60;24.00;;;;;;4986750;28;20035;-31
2023/09/08 04:01:14;;;;;;;9.82;6.88;;;22.80;23.20;;;;;;4991354;28;20053;-32
2023/09/08 04:03:40;;;;;;;12.27;8.13;;;22.40;25.20;;;;;;4993304;28;20034;-31
2023/09/08 04:06:05;;;;;;;11.27;7.70;;;22.60;23.20;;;;;;4992291;28;20497;-32
2023/09/08 04:08:31;;;;;;;10.18;7.70;;;22.60;23.70;;;;;;4992731;28;20030;-32
2023/09/08 04:10:56;;;;;;;11.18;7.55;;;22.80;23.00;;;;;;4990976;28;20046;-31
2023/09/08 04:13:22;;;;;;;10.45;7.38;;;22.70;23.60;;;;;;4991302;28;20100;-32
2023/09/08 04:15:48;;;;;;;9.02;7.18;;;22.30;25.70;;;;;;4991062;28;20121;-32
2023/09/08 04:18:13;;;;;;;8.95;7.00;;;22.30;22.30;;;;;;4992496;28;20038;-31
2023/09/08 04:20:39;;;;;;;10.80;7.85;;;22.50;21.50;;;;;;4992846;28;20215;-31
2023/09/08 04:23:05;;;;;;;10.10;7.85;;;22.60;18.50;;;;;;4992428;28;20031;-31
2023/09/08 04:25:31;;;;;;;10.00;7.10;;;22.60;18.00;;;;;;4992094;28;20052;-31
2023/09/08 04:27:56;;;;;;;9.57;7.25;;;22.10;17.20;;;;;;4990227;28;20041;-31
2023/09/08 04:30:22;;;;;;;10.30;7.95;;;22.40;17.70;;;;;;5006952;28;21595;-31
2023/09/08 04:32:48;;;;;;;10.43;7.78;;;22.50;20.70;;;;;;4992195;28;20117;-31
2023/09/08 04:35:13;;;;;;;9.57;7.40;;;22.40;20.50;;;;;;4992157;28;20069;-31
2023/09/08 04:37:40;;;;;;;9.85;7.15;;;22.10;20.00;;;;;;4992176;28;20034;-31
2023/09/08 04:40:07;;;;;;;11.00;7.40;;;22.30;21.20;;;;;;4990907;28;20129;-31
2023/09/08 04:42:33;;;;;;;10.32;7.72;;;22.30;15.60;;;;;;4992205;28;20571;-31
2023/09/08 04:44:58;;;;;;;9.60;7.60;;;22.60;19.20;;;;;;4991066;28;20125;-31
2023/09/08 04:47:24;;;;;;;12.57;8.45;;;22.10;20.40;;;;;;4989280;28;20073;-31
2023/09/08 04:49:49;;;;;;;10.43;8.30;;;22.20;19.70;;;;;;4990454;28;20034;-31
2023/09/08 04:52:15;;;;;;;13.02;8.52;;;22.40;17.30;;;;;;4985559;28;20137;-31
2023/09/08 04:54:41;;;;;;;11.77;8.55;;;21.90;14.40;;;;;;4988823;28;20061;-31
2023/09/08 04:57:06;;;;;;;9.38;7.80;;;22.50;18.80;;;;;;4989796;28;20056;-32
2023/09/08 04:59:32;;;;;;;12.32;8.40;;;23.00;18.50;;;;;;4991610;28;20038;-31
2023/09/08 05:01:58;;;;;;;10.90;7.40;;;21.60;18.60;;;;;;4991036;28;20412;-31
2023/09/08 05:04:24;;;;;;;10.45;8.18;;;21.90;20.10;;;;;;4985672;28;20039;-31
2023/09/08 05:06:50;;;;;;;9.82;7.65;;;21.50;19.90;;;;;;4991113;28;20045;-31
2023/09/08 05:09:15;;;;;;;9.85;7.78;;;22.30;20.40;;;;;;4992795;28;20041;-31
2023/09/08 05:11:41;;;;;;;10.13;7.65;;;21.90;18.60;;;;;;4976589;28;20043;-31
2023/09/08 05:14:07;;;;;;;10.30;8.65;;;21.90;17.30;;;;;;4990563;28;20057;-32
2023/09/08 05:16:46;;;;;;;10.68;8.57;;;22.10;17.50;;;;;;4988388;28;20038;-31
2023/09/08 05:19:13;;;;;;;10.73;9.05;;;22.10;1.70;;;;;;4990818;28;20042;-31
2023/09/08 05:21:38;;;;;;;11.93;9.10;;;22.00;25.70;;;;;;4991072;28;20049;-31
2023/09/08 05:24:04;;;;;;;11.63;8.25;;;22.10;19.70;;;;;;4991103;28;20038;-31
2023/09/08 05:26:30;;;;;;;11.63;9.20;;;21.90;14.60;;;;;;4986285;28;20046;-32
2023/09/08 05:28:56;;;;;;;9.95;8.85;;;21.90;17.70;;;;;;4990764;28;20041;-31
2023/09/08 05:31:21;;;;;;;10.68;8.90;;;21.80;20.90;;;;;;4984275;28;20061;-32
2023/09/08 05:33:47;;;;;;;14.05;9.32;;;22.00;19.40;;;;;;4989168;28;20181;-31
2023/09/08 05:36:13;;;;;;;10.88;9.35;;;21.30;18.70;;;;;;4979497;28;20049;-31
2023/09/08 05:38:38;;;;;;;12.30;9.65;;;22.20;19.50;;;;;;4991672;28;20066;-31
2023/09/08 05:41:04;;;;;;;12.25;9.63;;;22.00;16.80;;;;;;4983103;28;20038;-32
2023/09/08 05:43:30;;;;;;;12.20;8.57;;;21.30;18.00;;;;;;4988391;28;20042;-31
2023/09/08 05:45:55;;;;;;;11.80;9.43;;;21.40;16.90;;;;;;4981753;28;20117;-31
2023/09/08 05:48:21;;;;;;;13.65;9.57;;;21.00;17.60;;;;;;4942856;28;20912;-33
2023/09/08 05:50:46;;;;;;;10.52;9.23;;;21.90;24.90;;;;;;4947070;28;20050;-31
2023/09/08 05:53:12;;;;;;;10.57;9.25;;;21.70;17.10;;;;;;4977435;28;20030;-32
2023/09/08 05:55:38;;;;;;;10.73;9.18;;;21.90;18.20;;;;;;4976165;28;20042;-31
2023/09/08 05:58:03;;;;;;;11.82;9.07;;;20.90;18.10;;;;;;4976202;28;20026;-32
2023/09/08 06:00:29;;;;;;;11.77;9.68;;;21.60;16.90;;;;;;4975351;28;20571;-31
2023/09/08 06:02:55;;;;;;;11.65;9.15;;;21.20;19.40;;;;;;4971201;28;20062;-31
2023/09/08 06:05:20;;;;;;;15.35;9.20;;;21.50;22.90;;;;;;4968245;28;20050;-30
2023/09/08 06:07:46;;;;;;;10.70;8.63;;;22.10;23.30;;;;;;4974801;28;20481;-31
2023/09/08 06:10:12;;;;;;;14.43;10.10;;;22.20;24.20;;;;;;4974961;28;20042;-31
2023/09/08 06:12:37;;;;;;;13.40;8.98;;;22.30;23.50;;;;;;4980254;28;20050;-32
2023/09/08 06:15:04;;;;;;;12.45;9.65;;;21.90;22.20;;;;;;4958359;28;20409;-31
2023/09/08 06:17:29;;;;;;;12.68;9.65;;;21.90;17.40;;;;;;4983541;28;20053;-31
2023/09/08 06:19:55;;;;;;;11.48;9.00;;;21.30;25.50;;;;;;4978585;28;20043;-31
2023/09/08 06:22:21;;;;;;;12.95;9.32;;;21.90;28.10;;;;;;4978235;28;20110;-31
2023/09/08 06:24:47;;;;;;;11.85;8.73;;;20.80;31.70;;;;;;4967967;28;20046;-32
2023/09/08 06:27:14;;;;;;;10.45;8.45;;;21.90;32.40;;;;;;4972781;28;20031;-31
2023/09/08 06:29:42;;;;;;;11.43;8.85;;;22.20;35.00;;;;;;4971986;28;20146;-32
2023/09/08 06:32:07;;;;;;;12.07;8.63;;;22.00;36.50;;;;;;4971082;28;20053;-32
2023/09/08 06:34:35;;;;;;;9.88;8.57;;;21.50;36.10;;;;;;4976765;28;20405;-32
2023/09/08 06:37:01;;;;;;;10.90;8.90;;;22.10;36.70;;;;;;4973681;28;20192;-31
2023/09/08 06:39:27;;;;;;;9.43;7.63;;;21.60;41.10;;;;;;4967449;28;20133;-32
2023/09/08 06:41:52;;;;;;;11.10;8.77;;;21.80;41.90;;;;;;4973619;28;20660;-31
2023/09/08 06:44:20;;;;;;;10.80;8.32;;;21.90;44.60;;;;;;4973603;28;20942;-32
2023/09/08 06:46:45;;;;;;;14.23;8.30;;;21.50;50.20;;;;;;4971696;28;20039;-31
2023/09/08 06:49:11;;;;;;;10.63;8.20;;;21.70;50.00;;;;;;4975609;28;20033;-31
2023/09/08 06:51:38;;;;;;;11.35;8.02;;;22.20;52.00;;;;;;4976099;28;20041;-32
2023/09/08 06:54:04;;;;;;;9.98;7.20;;;21.80;55.40;;;;;;4974029;28;20038;-32
2023/09/08 06:56:30;;;;;;;9.50;7.68;;;21.80;58.80;;;;;;4970158;28;20503;-32
2023/09/08 06:58:57;;;;;;;9.82;7.57;;;20.90;63.30;;;;;;4972277;28;20038;-32
2023/09/08 07:01:24;;;;;;;11.45;8.30;;;21.80;66.60;;;;;;4973392;28;20047;-31
2023/09/08 07:03:49;;;;;;;11.82;7.97;;;21.00;71.90;;;;;;4973007;28;20043;-32
2023/09/08 07:06:16;;;;;;;8.50;7.20;;;22.20;74.30;;;;;;4972975;28;20049;-31
2023/09/08 07:08:41;;;;;;;9.57;6.57;;;21.90;78.60;;;;;;4975811;28;20037;-32
2023/09/08 07:11:07;;;;;;;8.13;5.95;;;22.00;78.50;;;;;;4972372;28;20042;-32
2023/09/08 07:13:33;;;;;;;7.95;5.28;;;21.30;75.20;;;;;;4975919;28;20047;-31
2023/09/08 07:15:59;;;;;;;7.05;4.60;;;22.00;73.40;;;;;;4973753;28;20042;-32
2023/09/08 07:18:24;;;;;;;7.28;4.90;;;23.10;70.70;;;;;;4973778;28;20157;-32
2023/09/08 07:20:50;;;;;;;7.05;4.88;;;21.90;66.40;;;;;;4969251;28;20073;-31
2023/09/08 07:23:19;;;;;;;7.95;5.13;;;22.30;68.90;;;;;;4967728;28;20154;-31
2023/09/08 07:25:49;;;;;;;7.72;5.05;;;22.10;70.80;;;;;;4971557;28;20125;-31
2023/09/08 07:28:15;;;;;;;7.20;4.47;;;22.00;42.40;;;;;;4969559;28;20055;-31
2023/09/08 07:30:41;;;;;;;7.10;4.63;;;21.40;66.60;;;;;;4967409;28;20045;-31
2023/09/08 07:33:07;;;;;;;7.45;4.97;;;22.40;65.10;;;;;;4976133;28;20039;-31
2023/09/08 07:35:36;;;;;;;7.80;4.82;;;22.20;64.80;;;;;;4975589;28;20060;-31
2023/09/08 07:38:01;;;;;;;7.50;5.43;;;22.30;70.50;;;;;;4974400;28;20039;-32
2023/09/08 07:40:27;;;;;;;7.72;4.35;;;22.40;66.10;;;;;;4976835;28;20894;-31
2023/09/08 07:42:53;;;;;;;6.60;4.72;;;22.50;65.10;;;;;;4977711;28;20526;-32
2023/09/08 07:45:18;;;;;;;7.32;4.85;;;22.30;67.80;;;;;;4974065;28;20058;-32
2023/09/08 07:47:45;;;;;;;6.88;4.80;;;22.10;76.40;;;;;;4975021;28;20062;-31
2023/09/08 07:50:22;;;;;;;7.55;5.07;;;22.40;67.60;;;;;;4972023;28;20034;-31
2023/09/08 07:52:50;;;;;;;6.93;4.65;;;22.40;73.10;;;;;;4979566;28;20126;-31
2023/09/08 07:55:16;;;;;;;6.55;4.38;;;23.30;72.50;;;;;;4973152;28;20062;-31
2023/09/08 07:57:43;;;;;;;6.78;4.30;;;22.30;72.30;;;;;;4974057;28;20034;-31
2023/09/08 08:00:12;;;;;;;6.70;4.45;;;22.20;71.20;;;;;;4975822;28;20049;-31
2023/09/08 08:02:43;;;;;;;7.53;4.88;;;22.30;60.50;;;;;;4978514;28;20249;-31
2023/09/08 08:05:09;;;;;;;7.05;4.35;;;22.10;75.70;;;;;;4977054;28;20035;-31
2023/09/08 08:07:35;;;;;;;6.63;4.53;;;22.00;71.00;;;;;;4973067;28;20030;-31
2023/09/08 08:10:01;;;;;;;6.70;4.30;;;22.00;74.10;;;;;;4976768;28;20042;-32
2023/09/08 08:12:27;;;;;;;5.93;4.10;;;22.10;74.20;;;;;;4981965;28;20046;-32
2023/09/08 08:14:52;;;;;;;7.35;4.15;;;22.40;77.30;;;;;;4973936;28;20509;-35
2023/09/08 08:17:19;;;;;;;6.65;4.13;;;22.30;74.60;;;;;;4970551;28;20112;-32
2023/09/08 08:19:45;;;;;;;7.07;4.43;;;22.40;77.30;;;;;;4976797;28;20057;-31
2023/09/08 08:22:11;;;;;;;7.10;4.55;;;22.50;77.80;;;;;;4976589;28;20050;-31
2023/09/08 08:24:36;;;;;;;5.85;3.83;;;22.40;78.60;;;;;;4974362;28;20616;-32
2023/09/08 08:27:02;;;;;;;6.15;4.22;;;22.10;80.20;;;;;;4973120;28;20635;-32
2023/09/08 08:29:29;;;;;;;6.75;4.60;;;22.40;79.80;;;;;;4970473;28;20524;-32
2023/09/08 08:31:55;;;;;;;6.25;4.40;;;22.00;83.80;;;;;;4979001;28;20046;-32
2023/09/08 08:34:20;;;;;;;7.00;4.40;;;22.30;84.30;;;;;;4972710;28;20050;-31
2023/09/08 08:36:46;;;;;;;6.68;4.72;;;22.40;83.00;;;;;;4970782;28;20647;-32
2023/09/08 08:39:12;;;;;;;7.65;4.70;;;22.50;85.40;;;;;;4974334;28;20031;-32
2023/09/08 08:41:39;;;;;;;6.78;4.47;;;22.50;86.70;;;;;;4972507;28;20046;-32
2023/09/08 08:44:08;;;;;;;6.03;4.05;;;22.80;88.00;;;;;;4973150;28;20069;-32
2023/09/08 08:46:36;;;;;;;6.88;4.78;;;22.60;90.50;;;;;;4974191;28;20515;-32
2023/09/08 08:49:05;;;;;;;7.18;4.78;;;22.30;90.10;;;;;;4973590;28;20039;-32
2023/09/08 08:51:32;;;;;;;6.28;4.35;;;22.30;92.10;;;;;;4970705;28;20413;-32
2023/09/08 08:53:57;;;;;;;6.68;4.45;;;22.80;91.20;;;;;;4974251;28;20540;-32
2023/09/08 08:56:23;;;;;;;7.07;4.80;;;22.60;91.20;;;;;;4969678;28;20054;-32
2023/09/08 08:58:50;;;;;;;6.60;4.30;;;20.90;90.30;;;;;;4973221;28;20083;-32
2023/09/08 09:01:21;;;;;;;6.35;4.20;;;22.60;91.00;;;;;;4972032;28;20054;-31
2023/09/08 09:03:50;;;;;;;6.00;4.20;;;22.50;91.80;;;;;;4976887;28;20125;-31
2023/09/08 09:06:16;;;;;;;6.20;4.00;;;22.40;92.10;;;;;;4970636;28;20479;-32
2023/09/08 09:08:45;;;;;;;6.40;4.32;;;23.40;91.60;;;;;;4975931;28;20472;-31
2023/09/08 09:11:11;;;;;;;5.85;3.67;;;22.60;94.50;;;;;;4976122;28;20042;-31
2023/09/08 09:13:37;;;;;;;6.80;4.38;;;22.50;92.60;;;;;;4973330;28;20137;-32
2023/09/08 09:16:04;;;;;;;7.25;4.30;;;22.40;92.90;;;;;;4976283;28;20042;-32
2023/09/08 09:18:30;;;;;;;8.40;4.35;;;22.50;93.30;;;;;;4979727;28;20577;-32
2023/09/08 09:20:59;;;;;;;6.50;4.40;;;21.60;92.80;;;;;;4976762;28;20157;-31
2023/09/08 09:23:31;;;;;;;7.10;4.57;;;22.60;96.00;;;;;;4975354;28;20035;-31
2023/09/08 09:25:58;;;;;;;6.38;4.53;;;21.20;80.80;;;;;;4974964;28;20053;-32
2023/09/08 09:28:25;;;;;;;6.13;4.10;;;22.40;96.10;;;;;;4975866;28;20042;-32
2023/09/08 09:30:54;;;;;;;6.22;4.25;;;22.20;97.00;;;;;;4972399;28;20070;-31
2023/09/08 09:33:20;;;;;;;6.50;4.38;;;22.70;97.00;;;;;;4972855;28;20669;-31
2023/09/08 09:35:54;;;;;;;6.90;4.40;;;22.60;96.90;;;;;;4973538;28;20290;-31
2023/09/08 09:38:20;;;;;;;6.45;4.70;;;22.10;98.70;;;;;;4994527;28;20386;-32
2023/09/08 09:40:47;;;;;;;6.72;4.50;;;22.40;97.20;;;;;;4973135;28;20796;-32
2023/09/08 09:43:14;;;;;;;7.25;4.47;;;22.80;98.30;;;;;;4973695;28;20045;-32
2023/09/08 09:45:41;;;;;;;6.20;4.20;;;22.60;98.70;;;;;;4974828;28;20046;-31
2023/09/08 09:48:08;;;;;;;7.93;4.47;;;22.90;99.20;;;;;;4975792;28;20379;-32
2023/09/08 09:50:43;;;;;;;6.57;4.50;;;22.70;99.60;;;;;;4976072;28;20523;-33
2023/09/08 09:53:13;;;;;;;7.45;4.30;;;22.80;99.90;;;;;;4978304;28;20042;-32
2023/09/08 09:55:40;;;;;;;6.65;4.82;;;22.90;99.90;;;;;;4978441;28;20038;-32
2023/09/08 09:58:08;;;;;;;6.47;4.18;;;23.00;99.90;;;;;;4974443;28;20404;-31
2023/09/08 10:00:35;;;;;;;6.95;3.75;;;22.60;99.90;;;;;;4973515;28;20469;-32
2023/09/08 10:03:01;;;;;;;6.10;4.13;;;23.00;99.90;;;;;;4979670;28;20420;-32
2023/09/08 10:05:27;;;;;;;7.55;4.30;;;22.90;99.90;;;;;;4973886;28;20049;-32
2023/09/08 10:07:53;;;;;;;7.32;4.97;;;22.80;99.90;;;;;;4970343;28;20050;-32
2023/09/08 10:10:20;;;;;;;6.28;4.35;;;23.00;99.90;;;;;;4973560;28;20501;-32
2023/09/08 10:12:52;;;;;;;6.30;4.28;;;22.90;99.90;;;;;;4974549;28;20051;-32
2023/09/08 10:15:23;;;;;;;6.07;4.18;;;22.90;99.90;;;;;;4976404;28;20047;-33
2023/09/08 10:17:55;;;;;;;5.95;4.10;;;22.80;93.90;;;;;;4974415;28;20560;-32
2023/09/08 10:20:26;;;;;;;6.20;4.35;;;23.00;99.90;;;;;;4972394;28;20059;-32
2023/09/08 10:23:20;;;;;;;6.50;4.07;;;22.70;94.10;;;;;;4972801;28;20055;-31
2023/09/08 10:25:53;;;;;;;6.45;4.50;;;23.00;99.90;;;;;;4970109;28;20493;-31
2023/09/08 10:28:21;;;;;;;6.63;4.43;;;22.80;99.90;;;;;;4975916;28;20049;-32
2023/09/08 10:30:48;;;;;;;6.80;4.50;;;22.80;99.90;;;;;;4972435;28;20408;-31
2023/09/08 10:33:15;;;;;;;7.47;4.38;;;22.80;99.90;;;;;;4972582;28;20521;-31
2023/09/08 10:35:42;;;;;;;6.78;4.45;;;22.90;99.90;;;;;;4968355;28;20523;-32
2023/09/08 10:38:28;;;;;;;6.15;3.95;;;23.70;99.90;;;;;;4970850;28;20038;-32
2023/09/08 10:41:16;;;;;;;6.35;4.20;;;22.80;99.90;;;;;;4978280;28;20069;-32
2023/09/08 10:43:45;;;;;;;7.47;4.20;;;22.80;99.90;;;;;;4973594;28;20050;-32
2023/09/08 10:46:20;;;;;;;6.50;4.28;;;22.70;99.90;;;;;;4974427;28;20069;-32
2023/09/08 10:48:46;;;;;;;6.63;4.68;;;23.00;99.90;;;;;;4975723;28;20073;-32
2023/09/08 10:51:16;;;;;;;7.10;3.95;;;22.70;99.90;;;;;;4978200;28;20073;-32
2023/09/08 10:53:42;;;;;;;6.05;4.18;;;23.10;99.90;;;;;;4975215;28;20044;-32
2023/09/08 10:56:08;;;;;;;6.97;4.28;;;23.00;99.90;;;;;;4971862;28;20038;-32
2023/09/08 10:58:37;;;;;;;6.43;3.92;;;23.10;99.90;;;;;;4976349;28;20038;-32
2023/09/08 11:01:04;;;;;;;6.50;4.65;;;22.70;99.90;;;;;;4970816;28;20038;-32
2023/09/08 11:03:41;;;;;;;7.03;4.40;;;22.90;99.90;;;;;;4976819;28;20501;-31
2023/09/08 11:06:08;;;;;;;7.03;4.35;;;22.70;99.90;;;;;;4980681;28;20042;-32
2023/09/08 11:08:35;;;;;;;6.15;4.10;;;23.10;99.90;;;;;;4985578;28;20480;-32
2023/09/08 11:11:01;;;;;;;7.10;4.82;;;22.80;99.90;;;;;;4983129;28;20035;-32
2023/09/08 11:13:30;;;;;;;7.35;4.13;;;23.10;99.90;;;;;;4987245;28;20050;-32
2023/09/08 11:15:56;;;;;;;6.40;4.28;;;22.70;99.90;;;;;;4979080;28;20089;-32
2023/09/08 11:18:33;;;;;;;6.40;4.43;;;23.30;99.90;;;;;;4974894;28;20054;-32
2023/09/08 11:21:04;;;;;;;6.03;3.85;;;24.00;99.90;;;;;;4981080;28;20105;-32
2023/09/08 11:23:30;;;;;;;6.13;4.20;;;22.60;99.90;;;;;;4975647;28;20034;-31
2023/09/08 11:25:56;;;;;;;6.60;4.10;;;24.00;99.90;;;;;;4978059;28;20034;-32
2023/09/08 11:28:23;;;;;;;6.50;4.32;;;23.70;99.90;;;;;;4980780;28;20098;-32
2023/09/08 11:30:49;;;;;;;6.63;4.30;;;23.10;99.90;;;;;;4976937;28;20042;-32
2023/09/08 11:33:26;;;;;;;7.35;4.60;;;23.10;99.90;;;;;;4979417;28;20049;-32
2023/09/08 11:35:53;;;;;;;6.40;4.30;;;23.10;99.90;;;;;;4980951;28;20050;-32
2023/09/08 11:38:26;;;;;;;6.05;4.35;;;23.20;99.90;;;;;;4972997;28;20058;-31
2023/09/08 11:40:54;;;;;;;6.20;4.10;;;23.20;99.90;;;;;;4974084;28;20046;-32
2023/09/08 11:43:20;;;;;;;7.93;4.45;;;23.80;99.90;;;;;;4976720;28;20114;-32
2023/09/08 11:45:46;;;;;;;7.35;4.60;;;23.30;99.90;;;;;;4975998;28;20043;-32
2023/09/08 11:48:14;;;;;;;6.45;4.20;;;24.00;99.90;;;;;;4976765;28;20104;-32
2023/09/08 11:50:41;;;;;;;6.57;4.32;;;23.30;99.90;;;;;;4975476;28;20093;-32
2023/09/08 11:53:07;;;;;;;6.38;4.38;;;22.80;99.90;;;;;;4978949;28;20057;-32
2023/09/08 11:55:32;;;;;;;6.20;4.07;;;23.80;99.90;;;;;;4979187;28;20035;-32
2023/09/08 11:58:00;;;;;;;6.28;4.35;;;23.00;99.90;;;;;;4976220;28;20485;-32
2023/09/08 12:00:27;;;;;;;7.07;3.85;;;23.30;99.90;;;;;;4957369;28;20057;-32
2023/09/08 12:02:53;;;;;;;6.47;4.65;;;23.20;99.90;;;;;;4939268;28;20058;-31
2023/09/08 12:05:36;;;;;;;7.43;4.28;;;23.10;99.90;;;;;;4975247;28;20423;-32
2023/09/08 12:08:07;;;;;;;5.50;3.58;;;24.10;99.90;;;;;;4979719;28;20073;-32
2023/09/08 12:10:40;;;;;;;7.03;4.00;;;23.20;99.90;;;;;;4976250;28;20049;-32
2023/09/08 12:13:06;;;;;;;7.28;4.13;;;22.80;99.90;;;;;;4976825;28;20034;-32
2023/09/08 12:15:37;;;;;;;7.00;4.20;;;23.40;99.90;;;;;;4980919;28;20035;-32
2023/09/08 12:18:16;;;;;;;5.63;3.78;;;24.00;99.90;;;;;;4971482;28;20042;-32
2023/09/08 12:20:43;;;;;;;7.15;4.28;;;23.20;99.90;;;;;;4973355;28;20034;-32
2023/09/08 12:23:17;;;;;;;5.93;3.80;;;23.50;99.90;;;;;;4975109;28;20104;-32
2023/09/08 12:25:51;;;;;;;6.05;3.75;;;24.00;99.90;;;;;;4978456;28;20038;-32
2023/09/08 12:28:19;;;;;;;6.57;4.28;;;24.00;99.90;;;;;;4982353;28;20042;-32
2023/09/08 12:30:45;;;;;;;6.65;4.13;;;23.30;99.90;;;;;;4980848;28;20409;-31
2023/09/08 12:33:11;;;;;;;6.50;4.47;;;22.90;99.90;;;;;;4980774;28;20043;-32
2023/09/08 12:35:36;;;;;;;5.88;3.92;;;23.00;99.90;;;;;;4973271;28;20046;-33
2023/09/08 12:38:05;;;;;;;6.93;4.93;;;23.50;99.90;;;;;;4973771;28;20035;-32
2023/09/08 12:40:35;;;;;;;6.25;4.18;;;23.10;99.90;;;;;;4973162;28;20053;-32
2023/09/08 12:43:00;;;;;;;6.75;4.10;;;23.60;99.90;;;;;;4968852;28;20054;-32